Time,TemperatureF,DewpointF,PressureIn,WindDirection,WindDirectionDegrees,WindSpeedMPH,WindSpeedGustMPH,Humidity,HourlyPrecipIn,Conditions,Clouds,dailyrainin,SoftwareType,DateUTC
2013-07-13 00:04:00,69.2,-35.7,30.00,NE,46,0.0,4.0,1,0.00,,,0.00,Wunderground v.1.15,2013-07-13 05:04:00,
2013-07-13 00:14:00,69.0,-35.8,30.00,NE,51,0.0,4.0,1,0.00,,,0.00,Wunderground v.1.15,2013-07-13 05:14:00,
2013-07-13 00:19:00,68.9,-35.9,30.00,NE,50,0.0,4.0,1,0.00,,,0.00,Wunderground v.1.15,2013-07-13 05:19:00,
2013-07-13 00:25:00,68.7,-36.0,30.00,NE,41,0.0,4.0,1,0.00,,,0.00,Wunderground v.1.15,2013-07-13 05:25:00,
2013-07-13 00:34:00,68.4,-36.2,30.00,East,96,0.0,4.0,1,0.00,,,0.00,Wunderground v.1.15,2013-07-13 05:34:00,
2013-07-13 00:39:00,68.2,-36.3,30.00,East,96,0.0,4.0,1,0.00,,,0.00,Wunderground v.1.15,2013-07-13 05:39:00,
2013-07-13 00:44:00,67.9,-36.5,30.00,NE,34,0.0,4.0,1,0.00,,,0.00,Wunderground v.1.15,2013-07-13 05:44:00,
2013-07-13 00:54:00,67.9,-36.5,30.00,ENE,77,0.0,4.0,1,0.00,,,0.00,Wunderground v.1.15,2013-07-13 05:54:00,
2013-07-13 00:59:00,67.8,-36.6,30.00,ESE,110,0.0,4.0,1,0.00,,,0.00,Wunderground v.1.15,2013-07-13 05:59:00,
2013-07-13 01:05:00,67.7,-36.6,30.00,North,351,0.0,4.0,1,0.00,,,0.00,Wunderground v.1.15,2013-07-13 06:05:00,
2013-07-13 01:15:00,67.8,-36.6,30.00,NE,51,0.0,4.0,1,0.00,,,0.00,Wunderground v.1.15,2013-07-13 06:15:00,
2013-07-13 01:24:00,67.5,-36.7,30.00,NE,42,0.0,4.0,1,0.00,,,0.00,Wunderground v.1.15,2013-07-13 06:24:00,
2013-07-13 01:34:00,67.1,-37.0,30.00,ENE,70,0.0,4.0,1,0.00,,,0.00,Wunderground v.1.15,2013-07-13 06:34:00,
2013-07-13 01:39:00,67.1,-37.0,30.00,ESE,114,0.0,4.0,1,0.00,,,0.00,Wunderground v.1.15,2013-07-13 06:39:00,
2013-07-13 01:44:00,66.9,-37.1,30.00,NNE,26,0.0,4.0,1,0.00,,,0.00,Wunderground v.1.15,2013-07-13 06:44:00,
2013-07-13 01:55:00,66.9,-37.1,30.00,ENE,69,1.0,4.0,1,0.00,,,0.00,Wunderground v.1.15,2013-07-13 06:55:00,
2013-07-13 02:04:00,66.9,-37.1,30.01,NE,43,0.0,4.0,1,0.00,,,0.00,Wunderground v.1.15,2013-07-13 07:04:00,
2013-07-13 02:14:00,66.7,-37.2,30.01,ESE,105,0.0,4.0,1,0.00,,,0.00,Wunderground v.1.15,2013-07-13 07:14:00,
2013-07-13 02:24:00,66.8,-37.2,30.01,SE,127,0.0,4.0,1,0.00,,,0.00,Wunderground v.1.15,2013-07-13 07:24:00,
2013-07-13 02:35:00,66.3,-37.5,30.01,ESE,113,0.0,4.0,1,0.00,,,0.00,Wunderground v.1.15,2013-07-13 07:35:00,
2013-07-13 02:44:00,65.9,-37.7,30.01,ESE,105,0.0,4.0,1,0.00,,,0.00,Wunderground v.1.15,2013-07-13 07:44:00,
2013-07-13 02:54:00,65.2,-38.1,30.02,ENE,67,0.0,4.0,1,0.00,,,0.00,Wunderground v.1.15,2013-07-13 07:54:00,
2013-07-13 02:59:00,64.9,-38.3,30.02,NNE,14,0.0,4.0,1,0.00,,,0.00,Wunderground v.1.15,2013-07-13 07:59:00,
2013-07-13 03:09:00,64.5,-38.6,30.02,East,98,0.0,4.0,1,0.00,,,0.00,Wunderground v.1.15,2013-07-13 08:09:00,
2013-07-13 03:15:00,64.3,-38.7,30.02,NNE,14,0.0,4.0,1,0.00,,,0.00,Wunderground v.1.15,2013-07-13 08:15:00,
2013-07-13 03:25:00,64.2,-38.7,30.02,North,6,0.0,4.0,1,0.00,,,0.00,Wunderground v.1.15,2013-07-13 08:25:00,
2013-07-13 03:29:00,64.1,-38.8,30.02,North,6,0.0,4.0,1,0.00,,,0.00,Wunderground v.1.15,2013-07-13 08:29:00,
2013-07-13 03:39:00,63.6,-39.1,30.02,NNE,25,0.0,4.0,1,0.00,,,0.00,Wunderground v.1.15,2013-07-13 08:39:00,
2013-07-13 03:49:00,62.7,-39.7,30.02,NNE,24,0.0,4.0,1,0.00,,,0.00,Wunderground v.1.15,2013-07-13 08:49:00,
2013-07-13 04:00:00,62.0,-40.1,30.02,SW,229,0.0,4.0,1,0.00,,,0.00,Wunderground v.1.15,2013-07-13 09:00:00,
2013-07-13 04:09:00,61.5,-40.4,30.02,SW,229,0.0,4.0,1,0.00,,,0.00,Wunderground v.1.15,2013-07-13 09:09:00,
2013-07-13 04:19:00,61.3,-40.5,30.02,SW,229,0.0,4.0,1,0.00,,,0.00,Wunderground v.1.15,2013-07-13 09:19:00,
2013-07-13 04:29:00,61.0,-40.7,30.01,SW,229,0.0,4.0,1,0.00,,,0.00,Wunderground v.1.15,2013-07-13 09:29:00,
2013-07-13 04:40:00,60.7,-40.9,30.01,SW,229,0.0,4.0,1,0.00,,,0.00,Wunderground v.1.15,2013-07-13 09:40:00,
2013-07-13 04:49:00,60.1,-41.2,30.01,SW,229,0.0,4.0,1,0.00,,,0.00,Wunderground v.1.15,2013-07-13 09:49:00,
2013-07-13 04:59:00,59.8,-41.4,30.01,SW,229,0.0,4.0,1,0.00,,,0.00,Wunderground v.1.15,2013-07-13 09:59:00,
2013-07-13 05:09:00,59.5,-41.6,30.01,SW,229,0.0,4.0,1,0.00,,,0.00,Wunderground v.1.15,2013-07-13 10:09:00,
2013-07-13 05:15:00,59.3,-41.7,30.01,SW,229,0.0,4.0,1,0.00,,,0.00,Wunderground v.1.15,2013-07-13 10:15:00,
2013-07-13 05:24:00,59.5,-41.6,30.01,SW,229,0.0,4.0,1,0.00,,,0.00,Wunderground v.1.15,2013-07-13 10:24:00,
2013-07-13 05:29:00,59.3,-41.7,30.01,SW,229,0.0,4.0,1,0.00,,,0.00,Wunderground v.1.15,2013-07-13 10:29:00,
2013-07-13 05:39:00,59.2,-41.8,30.02,SW,229,0.0,4.0,1,0.00,,,0.00,Wunderground v.1.15,2013-07-13 10:39:00,
2013-07-13 05:49:00,59.0,-41.9,30.02,SW,229,0.0,4.0,1,0.00,,,0.00,Wunderground v.1.15,2013-07-13 10:49:00,
2013-07-13 06:00:00,58.9,-42.0,30.02,SW,229,0.0,4.0,1,0.00,,,0.00,Wunderground v.1.15,2013-07-13 11:00:00,
2013-07-13 06:09:00,59.1,-41.9,30.02,SW,229,0.0,4.0,1,0.00,,,0.00,Wunderground v.1.15,2013-07-13 11:09:00,
2013-07-13 06:19:00,58.9,-42.0,30.01,SW,229,0.0,4.0,1,0.00,,,0.00,Wunderground v.1.15,2013-07-13 11:19:00,
2013-07-13 06:24:00,59.1,-41.9,30.02,SW,229,0.0,4.0,1,0.00,,,0.00,Wunderground v.1.15,2013-07-13 11:24:00,
2013-07-13 06:29:00,59.2,-41.8,30.02,SW,229,0.0,4.0,1,0.00,,,0.00,Wunderground v.1.15,2013-07-13 11:29:00,
2013-07-13 06:40:00,60.5,-41.0,30.02,SW,229,0.0,4.0,1,0.00,,,0.00,Wunderground v.1.15,2013-07-13 11:40:00,
2013-07-13 06:45:00,61.4,-40.5,30.02,SW,229,0.0,4.0,1,0.00,,,0.00,Wunderground v.1.15,2013-07-13 11:45:00,
2013-07-13 06:54:00,63.4,-39.2,30.03,SW,229,0.0,4.0,1,0.00,,,0.00,Wunderground v.1.15,2013-07-13 11:54:00,
2013-07-13 07:04:00,65.6,-37.9,30.03,SW,229,0.0,4.0,1,0.00,,,0.00,Wunderground v.1.15,2013-07-13 12:04:00,
2013-07-13 07:14:00,67.5,-36.7,30.03,SW,229,0.0,4.0,1,0.00,,,0.00,Wunderground v.1.15,2013-07-13 12:14:00,
2013-07-13 07:20:00,68.8,-35.9,30.03,SW,229,0.0,4.0,1,0.00,,,0.00,Wunderground v.1.15,2013-07-13 12:20:00,
2013-07-13 07:30:00,70.4,-35.0,30.03,SW,229,0.0,4.0,1,0.00,,,0.00,Wunderground v.1.15,2013-07-13 12:30:00,
2013-07-13 07:39:00,72.3,-33.8,30.04,SW,229,0.0,4.0,1,0.00,,,0.00,Wunderground v.1.15,2013-07-13 12:39:00,
2013-07-13 07:49:00,73.0,-33.4,30.04,SW,229,0.0,4.0,1,0.00,,,0.00,Wunderground v.1.15,2013-07-13 12:49:00,
2013-07-13 07:59:00,73.9,-32.9,30.04,SW,231,0.0,4.0,1,0.00,,,0.00,Wunderground v.1.15,2013-07-13 12:59:00,
2013-07-13 08:05:00,74.2,-32.7,30.04,North,11,0.0,4.0,1,0.00,,,0.00,Wunderground v.1.15,2013-07-13 13:05:00,
2013-07-13 08:14:00,74.2,-32.7,30.04,ESE,107,0.0,4.0,1,0.00,,,0.00,Wunderground v.1.15,2013-07-13 13:14:00,
2013-07-13 08:24:00,74.4,-32.6,30.04,NE,36,0.0,4.0,1,0.00,,,0.00,Wunderground v.1.15,2013-07-13 13:24:00,
2013-07-13 08:34:00,74.8,-32.3,30.04,ENE,63,0.0,4.0,1,0.00,,,0.00,Wunderground v.1.15,2013-07-13 13:34:00,
2013-07-13 08:45:00,74.8,-32.3,30.04,East,92,0.0,4.0,1,0.00,,,0.00,Wunderground v.1.15,2013-07-13 13:45:00,
2013-07-13 08:50:00,74.7,-32.4,30.04,ESE,120,0.0,4.0,1,0.00,,,0.00,Wunderground v.1.15,2013-07-13 13:50:00,
2013-07-13 08:59:00,74.9,-32.2,30.05,ESE,102,0.0,4.0,1,0.00,,,0.00,Wunderground v.1.15,2013-07-13 13:59:00,
2013-07-13 09:04:00,75.1,-32.1,30.05,ESE,112,0.0,4.0,1,0.00,,,0.00,Wunderground v.1.15,2013-07-13 14:04:00,
2013-07-13 09:14:00,75.1,-32.1,30.05,SSE,149,1.0,4.0,1,0.00,,,0.00,Wunderground v.1.15,2013-07-13 14:14:00,
2013-07-13 09:19:00,74.9,-32.2,30.05,East,87,0.0,4.0,1,0.00,,,0.00,Wunderground v.1.15,2013-07-13 14:19:00,
2013-07-13 09:24:00,74.8,-32.3,30.05,SE,138,1.0,4.0,1,0.00,,,0.00,Wunderground v.1.15,2013-07-13 14:24:00,
2013-07-13 09:30:00,74.9,-32.2,30.05,East,101,1.0,5.0,1,0.00,,,0.00,Wunderground v.1.15,2013-07-13 14:30:00,
2013-07-13 09:35:00,74.9,-32.2,30.05,ESE,115,2.0,5.0,1,0.00,,,0.00,Wunderground v.1.15,2013-07-13 14:35:00,
2013-07-13 09:44:00,75.6,-31.8,30.05,ESE,110,1.0,4.0,1,0.00,,,0.00,Wunderground v.1.15,2013-07-13 14:44:00,
2013-07-13 09:54:00,76.7,-31.2,30.06,East,87,1.0,4.0,1,0.00,,,0.00,Wunderground v.1.15,2013-07-13 14:54:00,
2013-07-13 10:04:00,77.3,-30.8,30.06,SE,128,1.0,4.0,1,0.00,,,0.00,Wunderground v.1.15,2013-07-13 15:04:00,
2013-07-13 10:09:00,77.9,-3.3,30.06,ESE,104,0.0,4.0,4,0.00,,,0.00,Wunderground v.1.15,2013-07-13 15:09:00,
2013-07-13 10:15:00,77.8,-9.3,30.06,SE,128,1.0,4.0,3,0.00,,,0.00,Wunderground v.1.15,2013-07-13 15:15:00,
2013-07-13 10:20:00,77.6,22.8,30.05,SE,127,2.0,4.0,13,0.00,,,0.00,Wunderground v.1.15,2013-07-13 15:20:00,
2013-07-13 10:24:00,78.1,-30.3,30.05,NNW,340,1.0,4.0,1,0.00,,,0.00,Wunderground v.1.15,2013-07-13 15:24:00,
2013-07-13 10:34:00,79.0,-29.8,30.05,ESE,108,0.0,4.0,1,0.00,,,0.00,Wunderground v.1.15,2013-07-13 15:34:00,
2013-07-13 10:39:00,79.5,20.3,30.04,ESE,105,0.0,4.0,11,0.00,,,0.00,Wunderground v.1.15,2013-07-13 15:39:00,
2013-07-13 10:49:00,80.0,34.0,30.04,East,101,1.0,4.0,19,0.00,,,0.00,Wunderground v.1.15,2013-07-13 15:49:00,
2013-07-13 10:55:00,80.3,38.0,30.04,ESE,114,1.0,4.0,22,0.00,,,0.00,Wunderground v.1.15,2013-07-13 15:55:00,
2013-07-13 11:05:00,80.7,44.6,30.04,East,90,1.0,2.0,28,0.00,,,0.00,Wunderground v.1.15,2013-07-13 16:05:00,
2013-07-13 11:14:00,82.0,51.6,30.04,NE,42,0.0,4.0,35,0.00,,,0.00,Wunderground v.1.15,2013-07-13 16:14:00,
2013-07-13 11:24:00,82.5,55.0,30.04,ESE,120,0.0,4.0,39,0.00,,,0.00,Wunderground v.1.15,2013-07-13 16:24:00,
2013-07-13 11:29:00,82.5,51.3,30.04,SSW,201,0.0,4.0,34,0.00,,,0.00,Wunderground v.1.15,2013-07-13 16:29:00,
2013-07-13 11:40:00,83.7,56.8,30.03,East,98,0.0,4.0,40,0.00,,,0.00,Wunderground v.1.15,2013-07-13 16:40:00,
2013-07-13 11:49:00,83.2,57.7,30.03,SE,128,0.0,4.0,42,0.00,,,0.00,Wunderground v.1.15,2013-07-13 16:49:00,
2013-07-13 11:59:00,83.2,57.7,30.03,SE,134,0.0,4.0,42,0.00,,,0.00,Wunderground v.1.15,2013-07-13 16:59:00,
2013-07-13 12:04:00,83.6,55.3,30.03,ESE,113,0.0,4.0,38,0.00,,,0.00,Wunderground v.1.15,2013-07-13 17:04:00,
2013-07-13 12:14:00,83.9,52.5,30.03,SSW,211,0.0,4.0,34,0.00,,,0.00,Wunderground v.1.15,2013-07-13 17:14:00,
2013-07-13 12:25:00,84.0,57.8,30.02,WNW,300,0.0,4.0,41,0.00,,,0.00,Wunderground v.1.15,2013-07-13 17:25:00,
2013-07-13 12:35:00,84.7,53.2,30.02,ESE,115,0.0,4.0,34,0.00,,,0.00,Wunderground v.1.15,2013-07-13 17:35:00,
2013-07-13 12:44:00,84.1,57.2,30.02,WNW,296,0.0,4.0,40,0.00,,,0.00,Wunderground v.1.15,2013-07-13 17:44:00,
2013-07-13 12:54:00,84.0,57.1,30.02,NW,315,0.0,4.0,40,0.00,,,0.00,Wunderground v.1.15,2013-07-13 17:54:00,
2013-07-13 12:59:00,84.1,58.5,30.01,NNE,32,0.0,4.0,42,0.00,,,0.00,Wunderground v.1.15,2013-07-13 17:59:00,
2013-07-13 13:04:00,83.6,59.4,30.01,NNE,15,0.0,4.0,44,0.00,,,0.00,Wunderground v.1.15,2013-07-13 18:04:00,
2013-07-13 13:09:00,83.1,53.4,30.01,NNW,346,0.0,4.0,36,0.00,,,0.00,Wunderground v.1.15,2013-07-13 18:09:00,
2013-07-13 13:14:00,83.1,53.4,30.01,NNW,346,0.0,4.0,36,0.00,,,0.00,Wunderground v.1.15,2013-07-13 18:14:00,
2013-07-13 13:20:00,82.7,57.3,30.01,NNW,338,0.0,4.0,42,0.00,,,0.00,Wunderground v.1.15,2013-07-13 18:20:00,
2013-07-13 13:29:00,82.3,56.9,30.01,West,262,0.0,4.0,42,0.00,,,0.00,Wunderground v.1.15,2013-07-13 18:29:00,
2013-07-13 13:34:00,82.1,54.7,30.01,NNE,22,0.0,4.0,39,0.00,,,0.00,Wunderground v.1.15,2013-07-13 18:34:00,
2013-07-13 13:39:00,82.0,52.4,30.01,NW,318,0.0,4.0,36,0.00,,,0.00,Wunderground v.1.15,2013-07-13 18:39:00,
2013-07-13 13:49:00,81.4,54.8,30.01,NNW,338,1.0,1.0,40,0.00,,,0.00,Wunderground v.1.15,2013-07-13 18:49:00,
2013-07-13 14:00:00,81.5,53.4,30.00,NNE,27,0.0,4.0,38,0.00,,,0.00,Wunderground v.1.15,2013-07-13 19:00:00,
2013-07-13 14:10:00,81.4,54.1,30.00,NNE,32,0.0,4.0,39,0.00,,,0.00,Wunderground v.1.15,2013-07-13 19:10:00,
2013-07-13 14:14:00,81.7,53.6,30.00,WNW,302,0.0,4.0,38,0.00,,,0.00,Wunderground v.1.15,2013-07-13 19:14:00,
2013-07-13 14:24:00,82.1,57.4,30.00,NE,34,0.0,4.0,43,0.00,,,0.00,Wunderground v.1.15,2013-07-13 19:24:00,
2013-07-13 14:34:00,82.2,58.7,30.00,North,11,0.0,4.0,45,0.00,,,0.00,Wunderground v.1.15,2013-07-13 19:34:00,
2013-07-13 14:45:00,82.2,54.8,30.00,NE,54,0.0,4.0,39,0.00,,,0.00,Wunderground v.1.15,2013-07-13 19:45:00,
2013-07-13 14:54:00,82.0,58.6,30.00,NW,318,0.0,4.0,45,0.00,,,0.00,Wunderground v.1.15,2013-07-13 19:54:00,
2013-07-13 15:04:00,81.3,52.5,30.00,North,353,0.0,4.0,37,0.00,,,0.00,Wunderground v.1.15,2013-07-13 20:04:00,
2013-07-13 15:09:00,81.2,53.2,30.00,WNW,283,0.0,4.0,38,0.00,,,0.00,Wunderground v.1.15,2013-07-13 20:09:00,
2013-07-13 15:19:00,81.1,52.4,29.99,NW,311,0.0,4.0,37,0.00,,,0.00,Wunderground v.1.15,2013-07-13 20:19:00,
2013-07-13 15:25:00,81.1,50.9,29.99,NNW,332,0.0,4.0,35,0.00,,,0.00,Wunderground v.1.15,2013-07-13 20:25:00,
2013-07-13 15:35:00,81.3,47.8,29.99,NW,305,0.0,4.0,31,0.00,,,0.00,Wunderground v.1.15,2013-07-13 20:35:00,
2013-07-13 15:44:00,81.2,47.7,29.99,NE,37,0.0,4.0,31,0.00,,,0.00,Wunderground v.1.15,2013-07-13 20:44:00,
2013-07-13 15:54:00,81.3,50.2,29.99,NW,308,0.0,4.0,34,0.00,,,0.00,Wunderground v.1.15,2013-07-13 20:54:00,
2013-07-13 16:04:00,81.3,54.7,29.99,NW,326,0.0,4.0,40,0.00,,,0.00,Wunderground v.1.15,2013-07-13 21:04:00,
2013-07-13 16:10:00,81.0,55.7,29.99,North,8,0.0,4.0,42,0.00,,,0.00,Wunderground v.1.15,2013-07-13 21:10:00,
2013-07-13 16:15:00,80.8,52.8,29.99,North,4,0.0,4.0,38,0.00,,,0.00,Wunderground v.1.15,2013-07-13 21:15:00,
2013-07-13 16:24:00,79.9,39.9,29.99,North,359,0.0,4.0,24,0.00,,,0.00,Wunderground v.1.15,2013-07-13 21:24:00,
2013-07-13 16:29:00,79.4,40.5,29.99,NW,311,0.0,4.0,25,0.00,,,0.00,Wunderground v.1.15,2013-07-13 21:29:00,
2013-07-13 16:39:00,78.8,27.2,29.99,NNW,329,0.0,4.0,15,0.00,,,0.00,Wunderground v.1.15,2013-07-13 21:39:00,
2013-07-13 16:44:00,78.7,12.4,29.99,NNW,329,0.0,4.0,8,0.00,,,0.00,Wunderground v.1.15,2013-07-13 21:44:00,
2013-07-13 16:49:00,78.5,12.2,29.99,NNW,329,0.0,4.0,8,0.00,,,0.00,Wunderground v.1.15,2013-07-13 21:49:00,
2013-07-13 16:55:00,78.3,14.8,30.00,NNW,329,0.0,4.0,9,0.00,,,0.00,Wunderground v.1.15,2013-07-13 21:55:00,
2013-07-13 17:04:00,77.6,8.6,30.00,NNW,328,0.0,4.0,7,0.00,,,0.00,Wunderground v.1.15,2013-07-13 22:04:00,
2013-07-13 17:09:00,77.4,-30.7,30.00,West,280,0.0,4.0,1,0.00,,,0.00,Wunderground v.1.15,2013-07-13 22:09:00,
2013-07-13 17:19:00,77.0,-31.0,29.99,NNE,15,0.0,4.0,1,0.00,,,0.00,Wunderground v.1.15,2013-07-13 22:19:00,
2013-07-13 17:29:00,76.7,-31.2,29.98,NNW,332,0.0,4.0,1,0.00,,,0.00,Wunderground v.1.15,2013-07-13 22:29:00,
2013-07-13 17:34:00,76.8,-31.1,29.98,NNE,25,0.0,4.0,1,0.00,,,0.00,Wunderground v.1.15,2013-07-13 22:34:00,
2013-07-13 17:39:00,76.7,-31.2,29.98,North,9,0.0,4.0,1,0.00,,,0.00,Wunderground v.1.15,2013-07-13 22:39:00,
2013-07-13 17:45:00,76.5,-31.3,29.98,NW,304,0.0,4.0,1,0.00,,,0.00,Wunderground v.1.15,2013-07-13 22:45:00,
2013-07-13 17:50:00,76.4,-31.3,29.98,NW,304,0.0,4.0,1,0.00,,,0.00,Wunderground v.1.15,2013-07-13 22:50:00,
2013-07-13 17:59:00,76.3,-31.4,29.98,NW,304,0.0,4.0,1,0.00,,,0.00,Wunderground v.1.15,2013-07-13 22:59:00,
2013-07-13 18:04:00,76.0,-31.6,29.98,North,353,0.0,4.0,1,0.00,,,0.00,Wunderground v.1.15,2013-07-13 23:04:00,
2013-07-13 18:09:00,76.0,-31.6,29.98,North,352,0.0,4.0,1,0.00,,,0.00,Wunderground v.1.15,2013-07-13 23:09:00,
2013-07-13 18:14:00,76.0,-31.6,29.98,North,352,0.0,4.0,1,0.00,,,0.00,Wunderground v.1.15,2013-07-13 23:14:00,
2013-07-13 18:24:00,75.7,-31.8,29.98,ENE,63,0.0,4.0,1,0.00,,,0.00,Wunderground v.1.15,2013-07-13 23:24:00,
2013-07-13 18:30:00,75.6,-31.8,29.97,North,353,0.0,4.0,1,0.00,,,0.00,Wunderground v.1.15,2013-07-13 23:30:00,
2013-07-13 18:40:00,75.5,-31.9,29.97,North,353,0.0,4.0,1,0.00,,,0.00,Wunderground v.1.15,2013-07-13 23:40:00,
2013-07-13 18:49:00,75.2,-32.1,29.97,NNW,333,0.0,4.0,1,0.00,,,0.00,Wunderground v.1.15,2013-07-13 23:49:00,
2013-07-13 18:59:00,74.9,-32.2,29.97,NW,311,0.0,4.0,1,0.00,,,0.00,Wunderground v.1.15,2013-07-13 23:59:00,
2013-07-13 19:09:00,74.7,-32.4,29.98,West,259,0.0,4.0,1,0.00,,,0.00,Wunderground v.1.15,2013-07-14 00:09:00,
2013-07-13 19:14:00,74.7,-32.4,29.98,West,259,0.0,4.0,1,0.00,,,0.00,Wunderground v.1.15,2013-07-14 00:14:00,
2013-07-13 19:20:00,74.6,-32.4,29.97,West,260,0.0,4.0,1,0.00,,,0.00,Wunderground v.1.15,2013-07-14 00:20:00,
2013-07-13 19:29:00,74.1,-32.7,29.97,NW,318,0.0,4.0,1,0.00,,,0.00,Wunderground v.1.15,2013-07-14 00:29:00,
2013-07-13 19:34:00,74.0,-32.8,29.98,WNW,291,0.0,4.0,1,0.00,,,0.00,Wunderground v.1.15,2013-07-14 00:34:00,
2013-07-13 19:44:00,73.9,-32.9,29.97,NNW,347,0.0,4.0,1,0.00,,,0.00,Wunderground v.1.15,2013-07-14 00:44:00,
2013-07-13 19:49:00,73.8,-32.9,29.96,NNW,347,0.0,4.0,1,0.00,,,0.00,Wunderground v.1.15,2013-07-14 00:49:00,
2013-07-13 20:00:00,73.4,-33.2,29.93,NNE,18,1.0,1.0,1,0.00,,,0.00,Wunderground v.1.15,2013-07-14 01:00:00,
2013-07-13 20:05:00,73.5,-33.1,29.94,NE,35,1.0,4.0,1,0.00,,,0.00,Wunderground v.1.15,2013-07-14 01:05:00,
2013-07-13 20:09:00,73.5,-33.1,29.95,WSW,252,0.0,4.0,1,0.00,,,0.00,Wunderground v.1.15,2013-07-14 01:09:00,
2013-07-13 20:19:00,73.4,-33.2,29.96,NNW,341,0.0,4.0,1,0.00,,,0.00,Wunderground v.1.15,2013-07-14 01:19:00,
2013-07-13 20:29:00,73.1,-33.3,29.97,NW,318,0.0,4.0,1,0.00,,,0.00,Wunderground v.1.15,2013-07-14 01:29:00,
2013-07-13 20:40:00,72.9,-33.5,29.97,WSW,243,0.0,4.0,1,0.00,,,0.00,Wunderground v.1.15,2013-07-14 01:40:00,
2013-07-13 20:50:00,72.6,-33.6,29.98,WNW,290,0.0,4.0,1,0.00,,,0.00,Wunderground v.1.15,2013-07-14 01:50:00,
2013-07-13 20:59:00,72.3,-33.8,29.97,WNW,291,0.0,4.0,1,0.00,,,0.00,Wunderground v.1.15,2013-07-14 01:59:00,
2013-07-13 21:09:00,71.7,-34.2,29.97,WNW,291,0.0,4.0,1,0.00,,,0.00,Wunderground v.1.15,2013-07-14 02:09:00,
2013-07-13 21:19:00,71.0,-34.6,29.98,WNW,291,0.0,4.0,1,0.00,,,0.00,Wunderground v.1.15,2013-07-14 02:19:00,
2013-07-13 21:25:00,70.8,-34.7,29.98,NNW,328,0.0,4.0,1,0.00,,,0.00,Wunderground v.1.15,2013-07-14 02:25:00,
2013-07-13 21:34:00,70.7,-34.8,29.99,NW,323,0.0,4.0,1,0.00,,,0.00,Wunderground v.1.15,2013-07-14 02:34:00,
2013-07-13 21:44:00,71.0,-34.6,29.99,NW,323,0.0,4.0,1,0.00,,,0.00,Wunderground v.1.15,2013-07-14 02:44:00,
2013-07-13 21:54:00,71.0,-34.6,30.00,West,265,0.0,4.0,1,0.00,,,0.00,Wunderground v.1.15,2013-07-14 02:54:00,
2013-07-13 22:04:00,70.5,-34.9,30.00,North,349,0.0,4.0,1,0.00,,,0.00,Wunderground v.1.15,2013-07-14 03:04:00,
2013-07-13 22:09:00,70.6,-34.9,30.00,NNW,342,0.0,4.0,1,0.00,,,0.00,Wunderground v.1.15,2013-07-14 03:09:00,
2013-07-13 22:14:00,70.7,-34.8,30.00,NNW,336,0.0,4.0,1,0.00,,,0.00,Wunderground v.1.15,2013-07-14 03:14:00,
2013-07-13 22:19:00,70.6,-34.9,30.00,WNW,291,0.0,4.0,1,0.00,,,0.00,Wunderground v.1.15,2013-07-14 03:19:00,
2013-07-13 22:24:00,70.6,-34.9,30.00,NW,315,0.0,4.0,1,0.00,,,0.00,Wunderground v.1.15,2013-07-14 03:24:00,
2013-07-13 22:34:00,70.3,-35.0,30.00,WNW,291,0.0,4.0,1,0.00,,,0.00,Wunderground v.1.15,2013-07-14 03:34:00,
2013-07-13 22:44:00,70.0,-35.2,30.00,NW,316,0.0,4.0,1,0.00,,,0.00,Wunderground v.1.15,2013-07-14 03:44:00,
2013-07-13 22:50:00,70.1,-35.2,30.00,North,3,1.0,1.0,1,0.00,,,0.00,Wunderground v.1.15,2013-07-14 03:50:00,
2013-07-13 22:55:00,70.1,-35.2,30.00,NW,312,1.0,4.0,1,0.00,,,0.00,Wunderground v.1.15,2013-07-14 03:55:00,
2013-07-13 23:00:00,70.0,-35.2,30.00,WNW,282,0.0,4.0,1,0.00,,,0.00,Wunderground v.1.15,2013-07-14 04:00:00,
2013-07-13 23:04:00,69.8,-35.3,30.00,NW,318,0.0,4.0,1,0.00,,,0.00,Wunderground v.1.15,2013-07-14 04:04:00,
2013-07-13 23:09:00,69.7,-35.4,30.00,WNW,303,0.0,4.0,1,0.00,,,0.00,Wunderground v.1.15,2013-07-14 04:09:00,
2013-07-13 23:14:00,69.5,-35.5,30.00,NW,315,0.0,4.0,1,0.00,,,0.00,Wunderground v.1.15,2013-07-14 04:14:00,
2013-07-13 23:19:00,69.3,-35.6,30.00,NNE,14,0.0,4.0,1,0.00,,,0.00,Wunderground v.1.15,2013-07-14 04:19:00,
2013-07-13 23:24:00,69.2,-35.7,30.00,North,350,0.0,4.0,1,0.00,,,0.00,Wunderground v.1.15,2013-07-14 04:24:00,
2013-07-13 23:35:00,68.5,-36.1,30.00,NNW,327,0.0,4.0,1,0.00,,,0.00,Wunderground v.1.15,2013-07-14 04:35:00,
2013-07-13 23:40:00,68.4,-36.2,30.00,NNW,327,0.0,4.0,1,0.00,,,0.00,Wunderground v.1.15,2013-07-14 04:40:00,
2013-07-13 23:49:00,68.1,-36.4,30.00,NW,313,0.0,4.0,1,0.00,,,0.00,Wunderground v.1.15,2013-07-14 04:49:00,
2013-07-13 23:59:00,67.9,-36.5,30.00,WNW,282,0.0,4.0,1,0.00,,,0.00,Wunderground v.1.15,2013-07-14 04:59:00,